createdAt,value
2023-01-11T00:00:57.925Z,10.55
2023-01-11T00:03:26.496Z,10.27
2023-01-11T00:05:57.884Z,10.82
2023-01-11T00:08:27.789Z,12.55
2023-01-11T00:10:57.873Z,9.85
2023-01-11T00:13:27.833Z,8.00
2023-01-11T00:15:56.773Z,9.27
2023-01-11T00:18:25.133Z,11.02
2023-01-11T00:20:53.745Z,7.13
2023-01-11T00:23:22.391Z,10.55
2023-01-11T00:25:50.681Z,9.18
2023-01-11T00:28:20.329Z,9.18
2023-01-11T00:30:50.271Z,10.73
2023-01-11T00:33:18.634Z,9.50
2023-01-11T00:35:47.094Z,7.68
2023-01-11T00:38:35.563Z,8.20
2023-01-11T00:41:24.021Z,7.35
2023-01-11T00:44:11.661Z,7.40
2023-01-11T00:46:57.892Z,6.80
2023-01-11T00:49:26.485Z,8.27
2023-01-11T00:51:54.748Z,7.68
2023-01-11T00:54:23.127Z,4.95
2023-01-11T00:56:51.735Z,5.80
2023-01-11T00:59:21.555Z,8.13
2023-01-11T01:01:49.868Z,7.03
2023-01-11T01:04:18.788Z,8.82
2023-01-11T01:06:47.320Z,7.68
2023-01-11T01:09:16.049Z,7.47
2023-01-11T01:11:44.486Z,5.00
2023-01-11T01:14:29.010Z,7.90
2023-01-11T01:17:01.902Z,6.63
2023-01-11T01:19:30.705Z,6.90
2023-01-11T01:22:00.723Z,4.93
2023-01-11T01:24:31.089Z,6.07
2023-01-11T01:27:00.244Z,7.30
2023-01-11T01:29:28.565Z,5.25
2023-01-11T01:31:58.400Z,7.35
2023-01-11T01:34:27.139Z,7.07
2023-01-11T01:36:55.618Z,7.40
2023-01-11T01:39:24.227Z,8.55
2023-01-11T01:41:52.844Z,4.53
2023-01-11T01:44:54.583Z,7.35
2023-01-11T01:47:30.502Z,6.53
2023-01-11T01:50:00.436Z,5.85
2023-01-11T01:52:31.720Z,6.55
2023-01-11T01:55:04.352Z,5.40
2023-01-11T01:57:38.883Z,7.88
2023-01-11T02:00:11.532Z,7.80
2023-01-11T02:02:42.311Z,5.45
2023-01-11T02:05:14.302Z,4.32
2023-01-11T02:07:44.771Z,7.55
2023-01-11T02:10:16.279Z,4.93
2023-01-11T02:12:48.596Z,5.75
2023-01-11T02:15:19.474Z,7.28
2023-01-11T02:17:49.541Z,5.57
2023-01-11T02:20:54.310Z,8.23
2023-01-11T02:24:02.546Z,6.10
2023-01-11T02:26:56.246Z,5.43
2023-01-11T02:29:35.654Z,6.15
2023-01-11T02:32:19.710Z,6.53
2023-01-11T02:34:56.679Z,7.15
2023-01-11T02:37:36.196Z,7.57
2023-01-11T02:40:11.967Z,8.93
2023-01-11T02:43:03.414Z,5.97
2023-01-11T02:45:40.965Z,7.35
2023-01-11T02:48:19.003Z,7.03
2023-01-11T02:50:55.523Z,4.88
2023-01-11T02:53:30.272Z,4.50
2023-01-11T02:56:02.701Z,4.82
2023-01-11T02:58:35.768Z,5.13
2023-01-11T03:01:06.034Z,3.72
2023-01-11T03:03:34.749Z,3.15
2023-01-11T03:06:07.435Z,7.55
2023-01-11T03:08:57.753Z,4.13
2023-01-11T03:11:58.667Z,4.82
2023-01-11T03:14:36.700Z,5.95
2023-01-11T03:17:17.775Z,5.82
2023-01-11T03:19:52.047Z,4.80
2023-01-11T03:22:28.058Z,6.55
2023-01-11T03:25:03.381Z,6.43
2023-01-11T03:27:40.256Z,4.97
2023-01-11T03:30:18.331Z,6.10
2023-01-11T03:32:53.186Z,4.63
2023-01-11T03:35:27.287Z,5.78
2023-01-11T03:38:01.903Z,6.55
2023-01-11T03:40:32.983Z,4.70
2023-01-11T03:43:13.772Z,3.55
2023-01-11T03:45:48.135Z,3.10
2023-01-11T03:48:21.868Z,4.47
2023-01-11T03:50:53.174Z,3.60
2023-01-11T03:53:24.421Z,2.75
2023-01-11T03:55:57.207Z,4.15
2023-01-11T03:58:27.435Z,2.80
2023-01-11T04:00:56.709Z,2.15
2023-01-11T04:03:28.486Z,1.92
2023-01-11T04:06:00.723Z,3.90
2023-01-11T04:08:31.364Z,2.65
2023-01-11T04:10:59.651Z,1.83
2023-01-11T04:13:28.934Z,2.75
2023-01-11T04:15:57.784Z,1.90
2023-01-11T04:18:27.493Z,4.68
2023-01-11T04:20:55.995Z,3.65
2023-01-11T04:23:24.516Z,4.38
2023-01-11T04:25:53.611Z,5.05
2023-01-11T04:28:22.057Z,6.85
2023-01-11T04:30:50.684Z,6.03
2023-01-11T04:33:19.701Z,6.13
2023-01-11T04:35:50.219Z,5.63
2023-01-11T04:38:19.120Z,8.18
2023-01-11T04:40:49.240Z,6.68
2023-01-11T04:43:16.898Z,10.57
2023-01-11T04:45:45.599Z,7.90
2023-01-11T04:48:13.890Z,15.43
2023-01-11T04:50:42.933Z,9.30
2023-01-11T04:53:13.108Z,10.73
2023-01-11T04:55:41.504Z,13.02
2023-01-11T04:58:09.830Z,12.77
2023-01-11T05:00:38.530Z,12.00
2023-01-11T05:03:07.130Z,17.60
2023-01-11T05:05:35.539Z,20.30
2023-01-11T05:08:04.009Z,18.75
2023-01-11T05:10:35.721Z,19.15
2023-01-11T05:13:04.494Z,14.10
2023-01-11T05:15:32.801Z,18.23
2023-01-11T05:18:01.271Z,18.48
2023-01-11T05:20:30.005Z,17.50
2023-01-11T05:22:58.718Z,18.35
2023-01-11T05:25:27.150Z,18.15
2023-01-11T05:27:57.110Z,20.08
2023-01-11T05:30:25.387Z,22.98
2023-01-11T05:32:53.756Z,17.55
2023-01-11T05:35:22.381Z,21.00
2023-01-11T05:37:50.581Z,19.00
2023-01-11T05:40:19.601Z,22.15
2023-01-11T05:42:48.435Z,24.95
2023-01-11T05:45:29.280Z,22.88
2023-01-11T05:47:58.043Z,22.55
2023-01-11T05:50:26.694Z,21.85
2023-01-11T05:52:55.856Z,24.67
2023-01-11T05:55:24.685Z,20.40
2023-01-11T05:57:53.004Z,24.13
2023-01-11T06:00:23.708Z,21.30
2023-01-11T06:02:52.435Z,21.60
2023-01-11T06:05:20.867Z,25.05
2023-01-11T06:07:49.324Z,22.08
2023-01-11T06:10:18.187Z,21.90
2023-01-11T06:12:46.419Z,20.60
2023-01-11T06:15:15.090Z,21.42
2023-01-11T06:17:44.829Z,22.55
2023-01-11T06:20:13.932Z,15.98
2023-01-11T06:22:42.321Z,20.75
2023-01-11T06:25:11.413Z,17.92
2023-01-11T06:27:39.698Z,25.30
2023-01-11T06:30:09.267Z,19.95
2023-01-11T06:32:37.759Z,19.05
2023-01-11T06:35:08.605Z,21.77
2023-01-11T06:37:36.968Z,22.17
2023-01-11T06:40:06.128Z,19.75
2023-01-11T06:42:34.452Z,23.10
2023-01-11T06:45:03.179Z,17.00
2023-01-11T06:47:31.639Z,16.77
2023-01-11T06:49:59.899Z,22.05
2023-01-11T06:52:29.849Z,17.10
2023-01-11T06:54:58.323Z,19.65
2023-01-11T06:57:26.572Z,18.25
2023-01-11T06:59:54.957Z,18.95
2023-01-11T07:02:23.641Z,22.27
2023-01-11T07:04:52.344Z,22.52
2023-01-11T07:07:20.589Z,23.90
2023-01-11T07:09:50.665Z,20.02
2023-01-11T07:12:18.975Z,16.67
2023-01-11T07:14:48.005Z,19.67
2023-01-11T07:17:16.837Z,20.77
2023-01-11T07:19:45.559Z,28.20
2023-01-11T07:22:14.951Z,22.73
2023-01-11T07:24:43.464Z,16.38
2023-01-11T07:27:13.697Z,20.02
2023-01-11T07:29:41.983Z,21.85
2023-01-11T07:32:10.984Z,22.63
2023-01-11T07:34:39.606Z,25.65
2023-01-11T07:37:09.603Z,25.52
2023-01-11T07:39:57.902Z,22.20
2023-01-11T07:42:44.933Z,22.60
2023-01-11T07:45:13.650Z,24.85
2023-01-11T07:47:41.923Z,21.77
2023-01-11T07:50:11.525Z,16.90
2023-01-11T07:52:40.116Z,23.73
2023-01-11T07:55:09.323Z,20.58
2023-01-11T07:57:39.492Z,24.00
2023-01-11T08:00:09.209Z,27.50
2023-01-11T08:02:37.608Z,19.92
2023-01-11T08:05:06.782Z,29.48
2023-01-11T08:07:35.464Z,24.98
2023-01-11T08:10:05.071Z,24.25
2023-01-11T08:12:51.634Z,23.27
2023-01-11T08:15:23.590Z,23.30
2023-01-11T08:17:53.217Z,23.02
2023-01-11T08:20:22.044Z,31.20
2023-01-11T08:22:50.387Z,29.08
2023-01-11T08:25:18.873Z,21.65
2023-01-11T08:27:47.206Z,23.98
2023-01-11T08:30:16.218Z,24.45
2023-01-11T08:32:46.129Z,26.50
2023-01-11T08:35:14.753Z,22.95
2023-01-11T08:37:43.172Z,20.73
2023-01-11T08:40:13.070Z,26.10
2023-01-11T08:42:41.706Z,23.10
2023-01-11T08:45:11.063Z,27.60
2023-01-11T08:47:39.403Z,21.08
2023-01-11T08:50:10.251Z,34.55
2023-01-11T08:52:39.155Z,27.13
2023-01-11T08:55:08.317Z,23.67
2023-01-11T08:57:36.837Z,22.65
2023-01-11T09:00:06.767Z,18.92
2023-01-11T09:02:35.345Z,21.42
2023-01-11T09:05:03.869Z,19.73
2023-01-11T09:07:33.871Z,20.42
2023-01-11T09:10:02.623Z,22.58
2023-01-11T09:12:32.802Z,21.10
2023-01-11T09:15:01.519Z,23.50
2023-01-11T09:17:29.915Z,17.75
2023-01-11T09:19:58.473Z,22.52
2023-01-11T09:22:27.685Z,22.23
2023-01-11T09:24:59.754Z,19.88
2023-01-11T09:27:28.640Z,18.40
2023-01-11T09:29:57.156Z,29.20
2023-01-11T09:32:25.847Z,20.50
2023-01-11T09:34:58.105Z,21.80
2023-01-11T09:37:26.817Z,19.42
2023-01-11T09:39:58.425Z,25.42
2023-01-11T09:42:36.868Z,25.58
2023-01-11T09:45:14.941Z,23.25
2023-01-11T09:47:47.748Z,17.88
2023-01-11T09:50:21.999Z,23.10
2023-01-11T09:52:53.600Z,19.10
2023-01-11T09:55:28.710Z,27.23
2023-01-11T09:58:29.529Z,18.60
2023-01-11T10:01:07.431Z,18.70
2023-01-11T10:04:06.463Z,24.05
2023-01-11T10:06:44.632Z,20.92
2023-01-11T10:18:32.760Z,21.02
2023-01-11T10:18:53.780Z,16.63
2023-01-11T10:21:31.157Z,18.42
2023-01-11T10:24:04.136Z,20.48
2023-01-11T10:26:39.824Z,25.13
2023-01-11T10:29:38.648Z,22.42
2023-01-11T10:32:34.695Z,23.02
2023-01-11T10:35:29.415Z,24.40
2023-01-11T10:38:15.698Z,22.77
2023-01-11T10:41:08.438Z,22.50
2023-01-11T10:43:41.299Z,22.67
2023-01-11T10:46:14.671Z,22.37
2023-01-11T10:48:44.318Z,22.42
2023-01-11T10:51:28.004Z,24.60
2023-01-11T10:54:03.252Z,22.88
2023-01-11T10:57:03.091Z,25.30
2023-01-11T11:00:18.792Z,27.75
2023-01-11T11:03:20.563Z,22.10
2023-01-11T11:05:54.998Z,21.70
2023-01-11T11:08:29.789Z,22.38
2023-01-11T11:11:02.581Z,25.52
2023-01-11T11:13:43.372Z,26.40
2023-01-11T11:16:32.415Z,20.67
2023-01-11T11:19:02.571Z,29.27
2023-01-11T11:21:35.426Z,26.70
2023-01-11T11:24:08.613Z,25.67
2023-01-11T11:26:41.816Z,21.48
2023-01-11T11:29:13.190Z,21.25
2023-01-11T11:31:47.242Z,20.83
2023-01-11T11:34:19.837Z,20.10
2023-01-11T11:36:51.619Z,21.35
2023-01-11T11:39:22.728Z,25.15
2023-01-11T11:41:53.581Z,24.20
2023-01-11T11:44:25.137Z,23.90
2023-01-11T11:47:01.648Z,27.83
2023-01-11T11:49:33.121Z,26.10
2023-01-11T11:52:03.834Z,29.50
2023-01-11T11:54:36.532Z,24.17
2023-01-11T11:57:17.249Z,29.40
2023-01-11T11:59:51.159Z,24.15
2023-01-11T12:02:26.377Z,17.08
2023-01-11T12:04:59.759Z,23.52
2023-01-11T12:07:36.112Z,29.98
2023-01-11T12:10:12.329Z,22.25
2023-01-11T12:12:53.037Z,19.58
2023-01-11T12:15:24.481Z,21.73
2023-01-11T12:17:53.424Z,23.35
2023-01-11T12:20:42.460Z,22.10
2023-01-11T12:23:17.636Z,23.77
2023-01-11T12:26:03.088Z,21.13
2023-01-11T12:28:47.553Z,22.83
2023-01-11T12:31:22.504Z,25.17
2023-01-11T12:34:00.925Z,23.73
2023-01-11T12:36:41.843Z,30.25
2023-01-11T12:39:22.904Z,20.13
2023-01-11T12:42:23.570Z,20.40
2023-01-11T12:45:04.367Z,22.50
2023-01-11T12:48:03.188Z,17.80
2023-01-11T12:53:30.281Z,19.10
2023-01-11T12:56:14.308Z,20.42
2023-01-11T13:01:27.367Z,13.48
2023-01-11T13:04:28.683Z,17.17
2023-01-11T13:07:08.148Z,22.05
2023-01-11T13:09:52.098Z,14.70
2023-01-11T13:15:16.210Z,15.68
2023-01-11T13:17:53.677Z,17.05
2023-01-11T13:20:40.483Z,12.88
2023-01-11T13:23:18.109Z,14.02
2023-01-11T13:28:29.501Z,19.83
2023-01-11T13:31:00.038Z,14.23
2023-01-11T13:33:32.132Z,21.00
2023-01-11T13:36:15.090Z,17.83
2023-01-11T13:38:56.703Z,14.77
2023-01-11T13:41:29.801Z,14.35
2023-01-11T13:44:02.373Z,19.83
2023-01-11T13:46:56.280Z,13.60
2023-01-11T13:49:40.295Z,17.75
2023-01-11T13:54:47.340Z,19.27
2023-01-11T13:57:23.328Z,15.90
2023-01-11T13:59:56.440Z,15.30
2023-01-11T14:02:32.086Z,14.35
2023-01-11T14:05:05.777Z,13.43
2023-01-11T14:10:25.804Z,16.70
2023-01-11T14:13:11.491Z,17.42
2023-01-11T14:15:45.837Z,15.75
2023-01-11T14:18:29.887Z,20.23
2023-01-11T14:23:40.809Z,17.87
2023-01-11T14:26:36.555Z,15.05
2023-01-11T14:29:25.697Z,20.42
2023-01-11T14:32:16.286Z,12.68
2023-01-11T14:35:30.691Z,15.05
2023-01-11T14:38:21.157Z,17.67
2023-01-11T14:41:15.331Z,17.25
2023-01-11T14:44:15.060Z,20.17
2023-01-11T14:47:12.237Z,19.63
2023-01-11T14:49:57.894Z,16.23
2023-01-11T14:52:39.723Z,19.13
2023-01-11T14:55:19.645Z,17.15
2023-01-11T14:58:06.479Z,18.27
2023-01-11T15:01:13.484Z,15.48
2023-01-11T15:03:56.133Z,17.75
2023-01-11T15:06:38.234Z,19.42
2023-01-11T15:09:43.690Z,19.73
2023-01-11T15:12:13.983Z,20.40
2023-01-11T15:14:48.709Z,20.15
2023-01-11T15:17:39.457Z,19.50
2023-01-11T15:20:10.417Z,25.08
2023-01-11T15:22:39.291Z,23.83
2023-01-11T15:25:27.524Z,16.70
2023-01-11T15:27:56.947Z,20.33
2023-01-11T15:30:40.015Z,23.25
2023-01-11T15:33:45.668Z,17.97
2023-01-11T15:36:14.454Z,15.43
2023-01-11T15:38:50.922Z,17.00
2023-01-11T15:41:47.128Z,19.55
2023-01-11T15:44:32.077Z,15.68
2023-01-11T15:47:26.004Z,17.42
2023-01-11T15:50:20.232Z,22.08
2023-01-11T15:56:15.768Z,17.15
2023-01-11T15:59:15.975Z,17.92
2023-01-11T16:02:03.882Z,16.17
2023-01-11T16:04:35.282Z,19.17
2023-01-11T16:07:16.889Z,17.63
2023-01-11T16:10:11.837Z,20.35
2023-01-11T16:12:59.650Z,20.00
2023-01-11T16:15:43.223Z,17.83
2023-01-11T16:18:16.075Z,20.75
2023-01-11T16:20:55.949Z,18.13
2023-01-11T16:23:25.917Z,18.52
2023-01-11T16:25:57.836Z,18.70
2023-01-11T16:28:27.250Z,17.75
2023-01-11T16:31:02.298Z,17.58
2023-01-11T16:33:32.818Z,20.45
2023-01-11T16:36:12.219Z,17.45
2023-01-11T16:38:51.205Z,19.60
2023-01-11T16:41:21.408Z,17.67
2023-01-11T16:43:54.554Z,17.95
2023-01-11T16:47:07.877Z,13.85
2023-01-11T16:49:37.369Z,14.20
2023-01-11T16:52:37.156Z,14.95
2023-01-11T16:55:19.535Z,14.25
2023-01-11T16:57:52.625Z,12.48
2023-01-11T17:00:29.138Z,16.77
2023-01-11T17:03:16.478Z,17.10
2023-01-11T17:05:55.338Z,13.27
2023-01-11T17:08:29.740Z,15.02
2023-01-11T17:11:03.996Z,11.98
2023-01-11T17:14:11.925Z,15.00
2023-01-11T17:16:42.519Z,14.68
2023-01-11T17:19:16.778Z,13.50
2023-01-11T17:21:50.173Z,12.82
2023-01-11T17:24:23.358Z,15.57
2023-01-11T17:26:56.223Z,10.75
2023-01-11T17:29:30.000Z,14.45
2023-01-11T17:34:31.871Z,17.95
2023-01-11T17:37:00.908Z,17.75
2023-01-11T17:39:32.438Z,21.10
2023-01-11T17:42:22.383Z,18.58
2023-01-11T17:45:10.149Z,20.75
2023-01-11T17:47:41.550Z,20.60
2023-01-11T17:50:22.056Z,16.02
2023-01-11T17:52:55.261Z,17.45
2023-01-11T17:55:26.364Z,19.67
2023-01-11T17:58:19.597Z,17.48
2023-01-11T18:01:19.689Z,15.52
2023-01-11T18:03:49.602Z,17.00
2023-01-11T18:06:33.279Z,12.38
2023-01-11T18:09:04.185Z,14.27
2023-01-11T18:11:35.827Z,20.00
2023-01-11T18:14:08.648Z,23.55
2023-01-11T18:16:37.445Z,18.47
2023-01-11T18:19:25.380Z,17.08
2023-01-11T18:21:55.156Z,17.77
2023-01-11T18:24:44.228Z,17.02
2023-01-11T18:27:38.329Z,21.05
2023-01-11T18:30:30.141Z,18.40
2023-01-11T18:32:59.883Z,19.15
2023-01-11T18:35:28.708Z,19.23
2023-01-11T18:37:57.124Z,18.77
2023-01-11T18:40:25.936Z,17.25
2023-01-11T18:42:55.705Z,17.08
2023-01-11T18:45:26.338Z,15.30
2023-01-11T18:47:55.055Z,20.70
2023-01-11T18:50:24.456Z,18.42
2023-01-11T18:52:53.729Z,14.20
2023-01-11T18:55:22.277Z,21.75
2023-01-11T18:57:50.625Z,13.50
2023-01-11T19:00:19.944Z,21.42
2023-01-11T19:05:19.910Z,15.05
2023-01-11T19:07:48.640Z,23.40
2023-01-11T19:10:19.702Z,20.33
2023-01-11T19:12:48.315Z,17.58
2023-01-11T19:15:17.744Z,18.33
2023-01-11T19:17:46.517Z,17.50
2023-01-11T19:20:16.390Z,22.60
2023-01-11T19:22:44.866Z,16.40
2023-01-11T19:25:13.616Z,15.38
2023-01-11T19:27:41.983Z,15.98
2023-01-11T19:30:12.350Z,20.98
2023-01-11T19:32:41.089Z,18.00
2023-01-11T19:35:10.574Z,17.48
2023-01-11T19:37:40.352Z,23.38
2023-01-11T19:40:10.712Z,20.30
2023-01-11T19:42:42.287Z,15.88
2023-01-11T19:45:11.223Z,18.85
2023-01-11T19:47:40.875Z,19.35
2023-01-11T19:50:10.224Z,17.33
2023-01-11T19:52:40.310Z,21.30
2023-01-11T19:55:10.285Z,23.15
2023-01-11T19:57:38.990Z,21.88
2023-01-11T20:00:08.484Z,23.90
2023-01-11T20:02:37.231Z,20.30
2023-01-11T20:05:06.872Z,22.98
2023-01-11T20:07:36.010Z,23.70
2023-01-11T20:10:06.573Z,15.45
2023-01-11T20:12:35.437Z,16.17
2023-01-11T20:15:04.395Z,26.58
2023-01-11T20:17:33.901Z,16.45
2023-01-11T20:20:02.646Z,17.25
2023-01-11T20:22:31.717Z,18.45
2023-01-11T20:25:01.003Z,17.27
2023-01-11T20:27:30.840Z,21.33
2023-01-11T20:29:59.960Z,20.75
2023-01-11T20:32:40.956Z,13.55
2023-01-11T20:35:11.046Z,11.23
2023-01-11T20:37:40.655Z,11.43
2023-01-11T20:40:11.908Z,15.43
2023-01-11T20:42:43.148Z,18.60
2023-01-11T20:45:13.052Z,12.07
2023-01-11T20:47:41.875Z,14.70
2023-01-11T20:50:11.310Z,14.25
2023-01-11T20:52:39.697Z,14.68
2023-01-11T20:55:09.085Z,17.27
2023-01-11T20:57:37.918Z,16.08
2023-01-11T21:02:40.838Z,12.15
2023-01-11T21:05:10.900Z,12.02
2023-01-11T21:07:41.465Z,14.48
2023-01-11T21:12:56.749Z,13.10
2023-01-11T21:15:26.659Z,16.10
2023-01-11T21:17:55.601Z,17.15
2023-01-11T21:20:23.961Z,17.63
2023-01-11T21:22:52.386Z,18.92
2023-01-11T21:25:21.422Z,22.02
2023-01-11T21:27:50.015Z,20.08
2023-01-11T21:30:22.839Z,20.48
2023-01-11T21:32:52.704Z,20.20
2023-01-11T21:35:21.161Z,25.40
2023-01-11T21:37:49.576Z,18.17
2023-01-11T21:40:18.521Z,20.63
2023-01-11T21:42:47.140Z,24.77
2023-01-11T21:45:15.894Z,20.42
2023-01-11T21:47:45.929Z,23.35
2023-01-11T21:50:15.799Z,20.23
2023-01-11T21:52:44.403Z,15.90
2023-01-11T21:55:13.328Z,20.70
2023-01-11T21:57:41.883Z,18.65
2023-01-11T22:00:12.943Z,23.70
2023-01-11T22:02:41.636Z,21.33
2023-01-11T22:05:11.029Z,18.55
2023-01-11T22:07:43.789Z,16.95
2023-01-11T22:10:15.351Z,23.98
2023-01-11T22:12:43.954Z,22.75
2023-01-11T22:15:13.046Z,19.45
2023-01-11T22:17:41.596Z,27.10
2023-01-11T22:20:11.295Z,22.55
2023-01-11T22:22:41.192Z,23.35
2023-01-11T22:25:09.941Z,20.08
2023-01-11T22:27:38.492Z,15.93
2023-01-11T22:30:08.572Z,16.67
2023-01-11T22:32:37.131Z,15.38
2023-01-11T22:35:05.850Z,13.98
2023-01-11T22:37:34.532Z,19.73
2023-01-11T22:40:04.399Z,18.17
2023-01-11T22:42:32.831Z,15.68
2023-01-11T22:45:01.379Z,18.35
2023-01-11T22:47:30.385Z,16.17
2023-01-11T22:49:58.807Z,20.60
2023-01-11T22:52:29.282Z,21.00
2023-01-11T22:54:57.792Z,20.70
2023-01-11T22:57:27.647Z,19.27
2023-01-11T22:59:59.003Z,17.25
2023-01-11T23:02:27.434Z,19.30
2023-01-11T23:04:55.882Z,19.80
2023-01-11T23:07:24.511Z,20.90
2023-01-11T23:09:52.740Z,17.73
2023-01-11T23:12:38.806Z,18.65
2023-01-11T23:15:10.089Z,24.52
2023-01-11T23:17:47.113Z,22.40
2023-01-11T23:20:15.912Z,24.30
2023-01-11T23:22:45.261Z,20.90
2023-01-11T23:25:13.564Z,17.17
2023-01-11T23:27:42.025Z,18.38
2023-01-11T23:30:13.202Z,21.63
2023-01-11T23:32:41.641Z,18.92
2023-01-11T23:35:10.683Z,24.67
2023-01-11T23:37:39.417Z,25.35
2023-01-11T23:40:09.609Z,21.73
2023-01-11T23:42:38.688Z,22.05
2023-01-11T23:45:08.502Z,24.95
2023-01-11T23:47:37.701Z,20.90
2023-01-11T23:50:06.829Z,23.25
2023-01-11T23:52:35.286Z,21.55
2023-01-11T23:55:03.843Z,21.70
2023-01-11T23:57:32.302Z,20.67
